sensor_id;sensor_type;location;lat;lon;timestamp;pressure;altitude;pressure_sealevel;temperature;humidity
69982;BME280;57319;56.274;43.980;2023-06-14T00:01:00;100219.44;;;11.49;57.50
69982;BME280;57319;56.274;43.980;2023-06-14T00:03:29;100220.28;;;11.48;57.92
69982;BME280;57319;56.274;43.980;2023-06-14T00:05:54;100222.03;;;11.44;58.31
69982;BME280;57319;56.274;43.980;2023-06-14T00:08:20;100220.34;;;11.43;58.24
69982;BME280;57319;56.274;43.980;2023-06-14T00:10:48;100213.50;;;11.39;58.35
69982;BME280;57319;56.274;43.980;2023-06-14T00:13:14;100215.25;;;11.35;58.45
69982;BME280;57319;56.274;43.980;2023-06-14T00:15:48;100216.97;;;11.32;58.24
69982;BME280;57319;56.274;43.980;2023-06-14T00:18:21;100212.72;;;11.28;58.45
69982;BME280;57319;56.274;43.980;2023-06-14T00:20:50;100210.16;;;11.26;58.08
69982;BME280;57319;56.274;43.980;2023-06-14T00:23:17;100213.63;;;11.25;57.62
69982;BME280;57319;56.274;43.980;2023-06-14T00:25:43;100220.50;;;11.22;57.79
69982;BME280;57319;56.274;43.980;2023-06-14T00:28:08;100219.69;;;11.18;58.11
69982;BME280;57319;56.274;43.980;2023-06-14T00:30:34;100223.13;;;11.17;58.80
69982;BME280;57319;56.274;43.980;2023-06-14T00:33:01;100220.59;;;11.11;59.13
69982;BME280;57319;56.274;43.980;2023-06-14T00:35:27;100221.47;;;11.07;59.27
69982;BME280;57319;56.274;43.980;2023-06-14T00:37:53;100222.34;;;11.04;59.30
69982;BME280;57319;56.274;43.980;2023-06-14T00:40:20;100212.91;;;11.03;59.69
69982;BME280;57319;56.274;43.980;2023-06-14T00:42:47;100207.75;;;11.03;59.67
69982;BME280;57319;56.274;43.980;2023-06-14T00:45:12;100213.78;;;11.03;59.50
69982;BME280;57319;56.274;43.980;2023-06-14T00:47:41;100219.75;;;11.06;59.33
69982;BME280;57319;56.274;43.980;2023-06-14T00:50:09;100224.91;;;11.10;59.15
69982;BME280;57319;56.274;43.980;2023-06-14T00:52:35;100215.44;;;11.11;59.11
69982;BME280;57319;56.274;43.980;2023-06-14T00:55:01;100216.31;;;11.13;58.68
69982;BME280;57319;56.274;43.980;2023-06-14T00:57:31;100219.72;;;11.13;58.57
69982;BME280;57319;56.274;43.980;2023-06-14T00:59:57;100220.56;;;11.17;58.40
69982;BME280;57319;56.274;43.980;2023-06-14T01:02:23;100221.34;;;11.24;58.13
69982;BME280;57319;56.274;43.980;2023-06-14T01:04:50;100216.97;;;11.32;57.72
69982;BME280;57319;56.274;43.980;2023-06-14T01:13:20;100215.81;;;11.68;55.75
69982;BME280;57319;56.274;43.980;2023-06-14T01:15:47;100211.41;;;11.77;55.55
69982;BME280;57319;56.274;43.980;2023-06-14T01:18:13;100211.38;;;11.83;55.29
69982;BME280;57319;56.274;43.980;2023-06-14T01:20:46;100219.03;;;11.89;55.45
69982;BME280;57319;56.274;43.980;2023-06-14T01:23:17;100219.88;;;11.89;55.42
69982;BME280;57319;56.274;43.980;2023-06-14T01:25:44;100210.50;;;11.82;56.34
69982;BME280;57319;56.274;43.980;2023-06-14T01:28:10;100203.66;;;11.78;56.33
69982;BME280;57319;56.274;43.980;2023-06-14T01:30:40;100205.44;;;11.75;56.32
69982;BME280;57319;56.274;43.980;2023-06-14T01:33:12;100208.06;;;11.68;56.84
69982;BME280;57319;56.274;43.980;2023-06-14T01:35:40;100214.09;;;11.66;57.07
69982;BME280;57319;56.274;43.980;2023-06-14T01:38:06;100208.94;;;11.67;57.12
69982;BME280;57319;56.274;43.980;2023-06-14T01:40:34;100208.91;;;11.69;56.96
69982;BME280;57319;56.274;43.980;2023-06-14T01:43:01;100201.16;;;11.72;56.82
69982;BME280;57319;56.274;43.980;2023-06-14T01:45:29;100208.88;;;11.75;56.78
69982;BME280;57319;56.274;43.980;2023-06-14T01:47:55;100207.09;;;11.77;56.91
69982;BME280;57319;56.274;43.980;2023-06-14T01:50:21;100203.63;;;11.81;56.76
69982;BME280;57319;56.274;43.980;2023-06-14T01:52:47;100200.16;;;11.85;56.30
69982;BME280;57319;56.274;43.980;2023-06-14T01:55:12;100208.66;;;11.92;56.15
69982;BME280;57319;56.274;43.980;2023-06-14T01:57:38;100200.06;;;11.99;56.27
69982;BME280;57319;56.274;43.980;2023-06-14T02:00:05;100193.06;;;12.08;56.19
69982;BME280;57319;56.274;43.980;2023-06-14T02:02:33;100201.59;;;12.16;55.84
69982;BME280;57319;56.274;43.980;2023-06-14T02:04:59;100197.16;;;12.26;55.81
69982;BME280;57319;56.274;43.980;2023-06-14T02:07:25;100203.03;;;12.37;55.58
69982;BME280;57319;56.274;43.980;2023-06-14T02:09:50;100193.44;;;12.47;55.49
69982;BME280;57319;56.274;43.980;2023-06-14T02:12:16;100204.47;;;12.56;54.47
69982;BME280;57319;56.274;43.980;2023-06-14T02:14:42;100205.31;;;12.60;54.04
69982;BME280;57319;56.274;43.980;2023-06-14T02:17:08;100203.38;;;12.75;53.92
69982;BME280;57319;56.274;43.980;2023-06-14T02:19:33;100205.75;;;12.88;53.67
69982;BME280;57319;56.274;43.980;2023-06-14T02:22:00;100202.09;;;13.02;53.46
69982;BME280;57319;56.274;43.980;2023-06-14T02:24:25;100206.19;;;13.17;53.03
69982;BME280;57319;56.274;43.980;2023-06-14T02:26:51;100208.53;;;13.31;52.49
69982;BME280;57319;56.274;43.980;2023-06-14T02:29:17;100210.97;;;13.42;51.87
69982;BME280;57319;56.274;43.980;2023-06-14T02:31:42;100215.19;;;13.47;51.87
69982;BME280;57319;56.274;43.980;2023-06-14T02:34:08;100216.81;;;13.53;51.45
69982;BME280;57319;56.274;43.980;2023-06-14T02:36:34;100224.47;;;13.59;51.20
69982;BME280;57319;56.274;43.980;2023-06-14T02:39:00;100219.19;;;13.64;51.33
69982;BME280;57319;56.274;43.980;2023-06-14T02:41:26;100224.28;;;13.70;50.88
69982;BME280;57319;56.274;43.980;2023-06-14T02:43:53;100222.44;;;13.75;51.05
69982;BME280;57319;56.274;43.980;2023-06-14T02:46:19;100219.78;;;13.80;50.84
69982;BME280;57319;56.274;43.980;2023-06-14T02:48:45;100223.16;;;13.85;51.04
69982;BME280;57319;56.274;43.980;2023-06-14T02:51:10;100211.81;;;13.90;50.11
69982;BME280;57319;56.274;43.980;2023-06-14T02:53:38;100206.69;;;13.89;50.11
69982;BME280;57319;56.274;43.980;2023-06-14T02:56:04;100204.88;;;13.93;50.14
69982;BME280;57319;56.274;43.980;2023-06-14T02:58:30;100212.56;;;13.96;50.20
69982;BME280;57319;56.274;43.980;2023-06-14T03:00:56;100206.47;;;13.98;50.38
69982;BME280;57319;56.274;43.980;2023-06-14T03:03:21;100207.28;;;14.02;50.20
69982;BME280;57319;56.274;43.980;2023-06-14T03:05:50;100203.81;;;14.03;49.79
69982;BME280;57319;56.274;43.980;2023-06-14T03:08:17;100201.97;;;14.08;50.18
69982;BME280;57319;56.274;43.980;2023-06-14T03:10:47;100206.22;;;14.14;50.18
69982;BME280;57319;56.274;43.980;2023-06-14T03:13:14;100205.22;;;14.19;49.92
69982;BME280;57319;56.274;43.980;2023-06-14T03:15:42;100199.09;;;14.23;49.67
69982;BME280;57319;56.274;43.980;2023-06-14T03:18:08;100210.22;;;14.27;49.29
69982;BME280;57319;56.274;43.980;2023-06-14T03:20:35;100205.88;;;14.29;49.05
69982;BME280;57319;56.274;43.980;2023-06-14T03:23:02;100199.78;;;14.32;49.16
69982;BME280;57319;56.274;43.980;2023-06-14T03:25:28;100199.75;;;14.33;49.30
69982;BME280;57319;56.274;43.980;2023-06-14T03:27:55;100198.00;;;14.34;49.06
69982;BME280;57319;56.274;43.980;2023-06-14T03:30:21;100192.81;;;14.34;49.27
69982;BME280;57319;56.274;43.980;2023-06-14T03:32:47;100202.34;;;14.33;49.01
69982;BME280;57319;56.274;43.980;2023-06-14T03:35:12;100192.81;;;14.34;48.84
69982;BME280;57319;56.274;43.980;2023-06-14T03:37:45;100188.53;;;14.34;49.44
69982;BME280;57319;56.274;43.980;2023-06-14T03:40:12;100198.88;;;14.33;49.38
69982;BME280;57319;56.274;43.980;2023-06-14T03:42:39;100198.88;;;14.34;49.67
69982;BME280;57319;56.274;43.980;2023-06-14T03:45:06;100193.44;;;14.45;49.71
69982;BME280;57319;56.274;43.980;2023-06-14T03:47:35;100194.03;;;14.58;50.45
69982;BME280;57319;56.274;43.980;2023-06-14T03:50:02;100192.88;;;14.73;50.50
69982;BME280;57319;56.274;43.980;2023-06-14T03:52:29;100194.94;;;14.95;50.42
69982;BME280;57319;56.274;43.980;2023-06-14T03:54:58;100196.28;;;15.13;49.61
69982;BME280;57319;56.274;43.980;2023-06-14T03:57:33;100192.31;;;15.32;49.05
69982;BME280;57319;56.274;43.980;2023-06-14T04:00:02;100184.16;;;15.48;48.19
69982;BME280;57319;56.274;43.980;2023-06-14T04:02:33;100190.03;;;15.54;47.42
69982;BME280;57319;56.274;43.980;2023-06-14T04:05:01;100188.22;;;15.58;46.60
69982;BME280;57319;56.274;43.980;2023-06-14T04:07:30;100195.03;;;15.62;46.39
69982;BME280;57319;56.274;43.980;2023-06-14T04:09:59;100194.28;;;15.57;46.09
69982;BME280;57319;56.274;43.980;2023-06-14T04:12:25;100190.81;;;15.58;46.15
69982;BME280;57319;56.274;43.980;2023-06-14T04:14:52;100187.38;;;15.56;45.07
69982;BME280;57319;56.274;43.980;2023-06-14T04:17:18;100186.28;;;15.65;44.83
69982;BME280;57319;56.274;43.980;2023-06-14T04:19:44;100183.41;;;15.75;44.11
69982;BME280;57319;56.274;43.980;2023-06-14T04:22:09;100188.53;;;15.78;43.84
69982;BME280;57319;56.274;43.980;2023-06-14T04:24:36;100185.94;;;15.78;44.16
69982;BME280;57319;56.274;43.980;2023-06-14T04:27:02;100190.19;;;15.81;43.71
69982;BME280;57319;56.274;43.980;2023-06-14T04:29:28;100184.28;;;15.76;43.85
69982;BME280;57319;56.274;43.980;2023-06-14T04:31:55;100190.41;;;15.73;43.61
69982;BME280;57319;56.274;43.980;2023-06-14T04:34:27;100189.38;;;15.79;44.20
69982;BME280;57319;56.274;43.980;2023-06-14T04:36:58;100185.88;;;15.82;44.52
69982;BME280;57319;56.274;43.980;2023-06-14T04:39:25;100187.41;;;15.89;44.61
69982;BME280;57319;56.274;43.980;2023-06-14T04:41:51;100186.50;;;15.90;45.02
69982;BME280;57319;56.274;43.980;2023-06-14T04:44:18;100184.84;;;15.87;45.43
69982;BME280;57319;56.274;43.980;2023-06-14T04:46:45;100185.63;;;15.91;45.43
69982;BME280;57319;56.274;43.980;2023-06-14T04:49:15;100190.72;;;15.94;45.77
69982;BME280;57319;56.274;43.980;2023-06-14T04:51:45;100188.03;;;15.97;45.86
69982;BME280;57319;56.274;43.980;2023-06-14T04:54:12;100186.22;;;16.01;45.93
69982;BME280;57319;56.274;43.980;2023-06-14T04:56:41;100189.56;;;16.04;45.85
69982;BME280;57319;56.274;43.980;2023-06-14T04:59:14;100192.88;;;16.09;45.76
69982;BME280;57319;56.274;43.980;2023-06-14T05:01:40;100188.53;;;16.10;45.53
69982;BME280;57319;56.274;43.980;2023-06-14T05:04:06;100179.69;;;16.17;45.33
69982;BME280;57319;56.274;43.980;2023-06-14T05:06:32;100181.16;;;16.26;45.13
69982;BME280;57319;56.274;43.980;2023-06-14T05:08:58;100187.78;;;16.36;44.96
69982;BME280;57319;56.274;43.980;2023-06-14T05:11:24;100184.78;;;16.50;45.07
69982;BME280;57319;56.274;43.980;2023-06-14T05:13:50;100184.44;;;16.61;45.05
69982;BME280;57319;56.274;43.980;2023-06-14T05:16:16;100187.56;;;16.72;45.06
69982;BME280;57319;56.274;43.980;2023-06-14T05:18:45;100179.59;;;16.77;44.23
69982;BME280;57319;56.274;43.980;2023-06-14T05:21:12;100181.00;;;16.89;43.82
69982;BME280;57319;56.274;43.980;2023-06-14T05:23:38;100184.41;;;16.91;43.26
69982;BME280;57319;56.274;43.980;2023-06-14T05:26:04;100182.47;;;16.98;43.71
69982;BME280;57319;56.274;43.980;2023-06-14T05:28:30;100181.31;;;17.06;43.45
69982;BME280;57319;56.274;43.980;2023-06-14T05:30:59;100180.16;;;17.15;43.35
69982;BME280;57319;56.274;43.980;2023-06-14T05:33:29;100186.78;;;17.24;43.15
69982;BME280;57319;56.274;43.980;2023-06-14T05:36:01;100181.50;;;17.27;42.49
69982;BME280;57319;56.274;43.980;2023-06-14T05:38:37;100177.94;;;17.29;42.54
69982;BME280;57319;56.274;43.980;2023-06-14T05:41:03;100179.38;;;17.38;42.66
69982;BME280;57319;56.274;43.980;2023-06-14T05:43:30;100178.28;;;17.45;42.93
69982;BME280;57319;56.274;43.980;2023-06-14T05:46:00;100177.09;;;17.54;42.91
69982;BME280;57319;56.274;43.980;2023-06-14T05:48:28;100175.19;;;17.59;42.65
69982;BME280;57319;56.274;43.980;2023-06-14T05:51:04;100163.69;;;17.65;42.21
69982;BME280;57319;56.274;43.980;2023-06-14T05:53:37;100167.69;;;17.75;41.45
69982;BME280;57319;56.274;43.980;2023-06-14T05:56:06;100169.97;;;17.85;41.39
69982;BME280;57319;56.274;43.980;2023-06-14T05:58:33;100162.34;;;18.04;41.06
69982;BME280;57319;56.274;43.980;2023-06-14T06:00:59;100168.66;;;18.22;40.84
69982;BME280;57319;56.274;43.980;2023-06-14T06:03:24;100173.41;;;18.33;40.59
69982;BME280;57319;56.274;43.980;2023-06-14T06:05:50;100167.97;;;18.39;39.81
69982;BME280;57319;56.274;43.980;2023-06-14T06:08:17;100169.28;;;18.51;39.23
69982;BME280;57319;56.274;43.980;2023-06-14T06:10:44;100167.22;;;18.59;39.01
69982;BME280;57319;56.274;43.980;2023-06-14T06:13:09;100166.28;;;18.60;38.46
69982;BME280;57319;56.274;43.980;2023-06-14T06:15:35;100166.00;;;18.68;38.69
69982;BME280;57319;56.274;43.980;2023-06-14T06:18:01;100168.72;;;18.87;38.46
69982;BME280;57319;56.274;43.980;2023-06-14T06:20:32;100173.47;;;18.99;39.13
69982;BME280;57319;56.274;43.980;2023-06-14T06:22:59;100171.91;;;19.15;38.40
69982;BME280;57319;56.274;43.980;2023-06-14T06:25:26;100168.88;;;19.26;37.19
69982;BME280;57319;56.274;43.980;2023-06-14T06:27:57;100168.13;;;19.23;37.19
69982;BME280;57319;56.274;43.980;2023-06-14T06:30:23;100163.13;;;19.18;35.46
69982;BME280;57319;56.274;43.980;2023-06-14T06:32:50;100169.19;;;19.19;35.21
69982;BME280;57319;56.274;43.980;2023-06-14T06:35:16;100169.03;;;19.22;35.48
69982;BME280;57319;56.274;43.980;2023-06-14T06:37:42;100168.59;;;19.32;35.77
69982;BME280;57319;56.274;43.980;2023-06-14T06:40:08;100162.25;;;19.38;35.92
69982;BME280;57319;56.274;43.980;2023-06-14T06:42:35;100164.88;;;19.38;34.30
69982;BME280;57319;56.274;43.980;2023-06-14T06:45:01;100161.41;;;19.38;34.40
69982;BME280;57319;56.274;43.980;2023-06-14T06:47:30;100171.47;;;19.47;34.81
69982;BME280;57319;56.274;43.980;2023-06-14T06:49:56;100166.94;;;19.50;34.22
69982;BME280;57319;56.274;43.980;2023-06-14T06:52:22;100162.13;;;19.62;34.37
69982;BME280;57319;56.274;43.980;2023-06-14T06:54:48;100165.75;;;19.78;34.94
69982;BME280;57319;56.274;43.980;2023-06-14T06:57:14;100157.97;;;19.77;33.90
69982;BME280;57319;56.274;43.980;2023-06-14T06:59:41;100156.16;;;19.79;33.59
69982;BME280;57319;56.274;43.980;2023-06-14T07:02:07;100149.22;;;19.78;33.38
69982;BME280;57319;56.274;43.980;2023-06-14T07:04:34;100162.16;;;19.81;32.88
69982;BME280;57319;56.274;43.980;2023-06-14T07:07:00;100154.06;;;19.87;32.78
69982;BME280;57319;56.274;43.980;2023-06-14T07:09:26;100156.91;;;20.02;32.38
69982;BME280;57319;56.274;43.980;2023-06-14T07:11:52;100151.00;;;20.17;32.46
69982;BME280;57319;56.274;43.980;2023-06-14T07:14:18;100150.41;;;20.29;32.47
69982;BME280;57319;56.274;43.980;2023-06-14T07:16:43;100151.75;;;20.38;31.61
69982;BME280;57319;56.274;43.980;2023-06-14T07:19:09;100147.22;;;20.42;30.70
69982;BME280;57319;56.274;43.980;2023-06-14T07:21:36;100148.97;;;20.41;30.64
69982;BME280;57319;56.274;43.980;2023-06-14T07:24:05;100144.59;;;20.42;29.61
69982;BME280;57319;56.274;43.980;2023-06-14T07:26:35;100148.78;;;20.46;28.91
69982;BME280;57319;56.274;43.980;2023-06-14T07:29:02;100149.69;;;20.45;29.43
69982;BME280;57319;56.274;43.980;2023-06-14T07:31:27;100152.53;;;20.40;29.36
69982;BME280;57319;56.274;43.980;2023-06-14T07:33:53;100151.75;;;20.38;29.16
69982;BME280;57319;56.274;43.980;2023-06-14T07:36:19;100152.72;;;20.36;29.20
69982;BME280;57319;56.274;43.980;2023-06-14T07:38:45;100147.50;;;20.36;28.46
69982;BME280;57319;56.274;43.980;2023-06-14T07:41:13;100147.16;;;20.43;28.92
69982;BME280;57319;56.274;43.980;2023-06-14T07:43:39;100145.94;;;20.50;29.86
69982;BME280;57319;56.274;43.980;2023-06-14T07:46:05;100142.16;;;20.56;30.05
69982;BME280;57319;56.274;43.980;2023-06-14T07:48:32;100155.97;;;20.60;29.78
69982;BME280;57319;56.274;43.980;2023-06-14T07:50:57;100156.63;;;20.63;30.04
69982;BME280;57319;56.274;43.980;2023-06-14T07:53:24;100148.66;;;20.66;30.03
69982;BME280;57319;56.274;43.980;2023-06-14T07:55:51;100150.00;;;20.75;29.38
69982;BME280;57319;56.274;43.980;2023-06-14T07:58:19;100152.53;;;20.77;29.17
69982;BME280;57319;56.274;43.980;2023-06-14T08:00:47;100148.03;;;20.80;29.16
69982;BME280;57319;56.274;43.980;2023-06-14T08:03:14;100152.56;;;20.94;29.49
69982;BME280;57319;56.274;43.980;2023-06-14T08:05:41;100149.56;;;21.19;29.76
69982;BME280;57319;56.274;43.980;2023-06-14T08:08:06;100150.34;;;21.22;29.67
69982;BME280;57319;56.274;43.980;2023-06-14T08:10:32;100151.25;;;21.21;29.98
69982;BME280;57319;56.274;43.980;2023-06-14T08:12:58;100158.56;;;21.14;30.33
69982;BME280;57319;56.274;43.980;2023-06-14T08:15:26;100156.88;;;20.95;30.26
69982;BME280;57319;56.274;43.980;2023-06-14T08:17:53;100153.28;;;20.98;30.64
69982;BME280;57319;56.274;43.980;2023-06-14T08:20:20;100153.28;;;20.98;29.98
69982;BME280;57319;56.274;43.980;2023-06-14T08:22:46;100144.09;;;21.07;28.29
69982;BME280;57319;56.274;43.980;2023-06-14T08:25:12;100150.56;;;21.17;28.20
69982;BME280;57319;56.274;43.980;2023-06-14T08:27:39;100149.56;;;21.37;28.63
69982;BME280;57319;56.274;43.980;2023-06-14T08:30:05;100147.13;;;21.50;28.55
69982;BME280;57319;56.274;43.980;2023-06-14T08:32:34;100132.75;;;21.59;28.99
69982;BME280;57319;56.274;43.980;2023-06-14T08:35:00;100136.13;;;21.61;27.89
69982;BME280;57319;56.274;43.980;2023-06-14T08:37:26;100137.25;;;21.73;28.51
69982;BME280;57319;56.274;43.980;2023-06-14T08:39:52;100133.63;;;21.75;28.03
69982;BME280;57319;56.274;43.980;2023-06-14T08:42:18;100131.53;;;21.82;28.06
69982;BME280;57319;56.274;43.980;2023-06-14T08:44:47;100127.91;;;22.00;28.35
69982;BME280;57319;56.274;43.980;2023-06-14T08:47:13;100127.69;;;22.05;27.49
69982;BME280;57319;56.274;43.980;2023-06-14T08:49:45;100125.13;;;21.88;28.27
69982;BME280;57319;56.274;43.980;2023-06-14T08:52:13;100125.34;;;21.83;27.85
69982;BME280;57319;56.274;43.980;2023-06-14T08:54:41;100120.19;;;21.81;27.69
69982;BME280;57319;56.274;43.980;2023-06-14T08:57:12;100115.75;;;21.83;27.32
69982;BME280;57319;56.274;43.980;2023-06-14T08:59:47;100116.75;;;21.81;27.70
69982;BME280;57319;56.274;43.980;2023-06-14T09:02:19;100113.28;;;21.80;27.64
69982;BME280;57319;56.274;43.980;2023-06-14T09:04:47;100112.84;;;21.88;27.68
69982;BME280;57319;56.274;43.980;2023-06-14T09:07:15;100113.22;;;21.82;27.61
69982;BME280;57319;56.274;43.980;2023-06-14T09:09:41;100102.38;;;21.88;27.79
69982;BME280;57319;56.274;43.980;2023-06-14T09:12:09;100107.13;;;21.97;27.77
69982;BME280;57319;56.274;43.980;2023-06-14T09:14:37;100096.22;;;22.05;27.52
69982;BME280;57319;56.274;43.980;2023-06-14T09:17:05;100107.47;;;22.07;28.20
69982;BME280;57319;56.274;43.980;2023-06-14T09:19:31;100105.00;;;22.04;28.09
69982;BME280;57319;56.274;43.980;2023-06-14T09:21:57;100110.34;;;22.02;27.80
69982;BME280;57319;56.274;43.980;2023-06-14T09:24:24;100104.94;;;22.06;27.41
69982;BME280;57319;56.274;43.980;2023-06-14T09:26:51;100099.50;;;22.09;27.24
69982;BME280;57319;56.274;43.980;2023-06-14T09:29:20;100096.13;;;22.23;27.00
69982;BME280;57319;56.274;43.980;2023-06-14T09:31:47;100092.50;;;22.09;27.15
69982;BME280;57319;56.274;43.980;2023-06-14T09:34:16;100093.19;;;21.97;27.79
69982;BME280;57319;56.274;43.980;2023-06-14T09:36:43;100088.53;;;21.86;27.61
69982;BME280;57319;56.274;43.980;2023-06-14T09:39:09;100089.38;;;21.86;27.83
69982;BME280;57319;56.274;43.980;2023-06-14T09:44:21;100079.41;;;22.09;27.95
69982;BME280;57319;56.274;43.980;2023-06-14T09:46:50;100079.28;;;22.27;27.84
69982;BME280;57319;56.274;43.980;2023-06-14T09:49:16;100078.34;;;22.28;27.24
69982;BME280;57319;56.274;43.980;2023-06-14T09:51:45;100079.13;;;22.14;27.33
69982;BME280;57319;56.274;43.980;2023-06-14T09:54:16;100080.56;;;22.19;27.73
69982;BME280;57319;56.274;43.980;2023-06-14T09:56:45;100075.19;;;22.07;27.68
69982;BME280;57319;56.274;43.980;2023-06-14T09:59:16;100082.28;;;21.89;28.04
69982;BME280;57319;56.274;43.980;2023-06-14T10:01:44;100083.78;;;21.77;28.01
69982;BME280;57319;56.274;43.980;2023-06-14T10:04:13;100082.88;;;21.78;28.27
69982;BME280;57319;56.274;43.980;2023-06-14T10:06:43;100081.75;;;21.66;28.31
69982;BME280;57319;56.274;43.980;2023-06-14T10:09:12;100077.16;;;21.54;28.67
69982;BME280;57319;56.274;43.980;2023-06-14T10:11:38;100074.53;;;21.54;28.50
69982;BME280;57319;56.274;43.980;2023-06-14T10:14:10;100069.03;;;21.58;28.37
69982;BME280;57319;56.274;43.980;2023-06-14T10:17:16;100068.72;;;21.64;28.42
69982;BME280;57319;56.274;43.980;2023-06-14T10:19:40;100065.84;;;21.69;28.54
69982;BME280;57319;56.274;43.980;2023-06-14T10:22:12;100063.75;;;21.60;28.83
69982;BME280;57319;56.274;43.980;2023-06-14T10:24:44;100061.28;;;21.57;28.25
69982;BME280;57319;56.274;43.980;2023-06-14T10:27:14;100052.94;;;21.66;28.21
69982;BME280;57319;56.274;43.980;2023-06-14T10:32:18;100051.09;;;21.68;28.35
69982;BME280;57319;56.274;43.980;2023-06-14T10:34:44;100045.41;;;21.76;28.16
69982;BME280;57319;56.274;43.980;2023-06-14T10:37:12;100041.50;;;21.83;28.07
69982;BME280;57319;56.274;43.980;2023-06-14T10:42:06;100042.03;;;21.74;29.51
69982;BME280;57319;56.274;43.980;2023-06-14T10:47:25;100034.75;;;21.79;29.22
69982;BME280;57319;56.274;43.980;2023-06-14T10:49:58;100036.78;;;21.90;28.86
69982;BME280;57319;56.274;43.980;2023-06-14T10:52:33;100032.69;;;22.16;27.68
69982;BME280;57319;56.274;43.980;2023-06-14T10:55:06;100034.81;;;22.41;27.38
69982;BME280;57319;56.274;43.980;2023-06-14T10:57:47;100028.88;;;22.68;27.38
69982;BME280;57319;56.274;43.980;2023-06-14T11:00:21;100027.81;;;22.26;27.50
69982;BME280;57319;56.274;43.980;2023-06-14T11:06:07;100020.09;;;21.27;28.92
69982;BME280;57319;56.274;43.980;2023-06-14T11:11:25;100017.13;;;20.99;29.55
69982;BME280;57319;56.274;43.980;2023-06-14T11:13:55;100017.91;;;21.35;29.11
69982;BME280;57319;56.274;43.980;2023-06-14T11:16:25;100015.09;;;21.88;27.91
69982;BME280;57319;56.274;43.980;2023-06-14T11:18:53;100017.28;;;22.72;27.26
69982;BME280;57319;56.274;43.980;2023-06-14T11:21:19;100012.81;;;23.46;26.18
69982;BME280;57319;56.274;43.980;2023-06-14T11:23:51;100011.91;;;24.16;25.10
69982;BME280;57319;56.274;43.980;2023-06-14T11:26:28;99998.41;;;23.39;25.51
69982;BME280;57319;56.274;43.980;2023-06-14T11:28:59;100005.69;;;22.91;26.29
69982;BME280;57319;56.274;43.980;2023-06-14T11:31:28;100002.50;;;22.85;26.29
69982;BME280;57319;56.274;43.980;2023-06-14T11:33:57;99995.66;;;22.83;25.20
69982;BME280;57319;56.274;43.980;2023-06-14T11:36:34;99993.25;;;23.23;25.75
69982;BME280;57319;56.274;43.980;2023-06-14T11:39:01;99983.34;;;23.70;25.56
69982;BME280;57319;56.274;43.980;2023-06-14T11:41:43;99981.28;;;23.61;25.35
69982;BME280;57319;56.274;43.980;2023-06-14T11:44:09;99980.03;;;23.25;26.24
69982;BME280;57319;56.274;43.980;2023-06-14T11:46:39;99981.22;;;23.04;26.30
69982;BME280;57319;56.274;43.980;2023-06-14T11:49:06;99976.09;;;23.17;26.63
69982;BME280;57319;56.274;43.980;2023-06-14T11:51:36;99980.94;;;23.38;25.83
69982;BME280;57319;56.274;43.980;2023-06-14T11:54:05;99975.19;;;23.60;25.41
69982;BME280;57319;56.274;43.980;2023-06-14T11:56:31;99977.84;;;23.46;25.61
69982;BME280;57319;56.274;43.980;2023-06-14T11:59:02;99977.00;;;23.02;25.61
69982;BME280;57319;56.274;43.980;2023-06-14T12:01:36;99967.84;;;22.95;25.88
69982;BME280;57319;56.274;43.980;2023-06-14T12:04:03;99974.94;;;22.93;26.19
69982;BME280;57319;56.274;43.980;2023-06-14T12:06:31;99964.72;;;22.88;26.79
69982;BME280;57319;56.274;43.980;2023-06-14T12:09:05;99969.22;;;22.86;26.49
69982;BME280;57319;56.274;43.980;2023-06-14T12:11:37;99962.28;;;22.99;26.69
69982;BME280;57319;56.274;43.980;2023-06-14T12:14:08;99960.06;;;23.22;27.23
69982;BME280;57319;56.274;43.980;2023-06-14T12:16:35;99960.56;;;24.11;25.74
69982;BME280;57319;56.274;43.980;2023-06-14T12:19:12;99959.88;;;24.21;25.74
69982;BME280;57319;56.274;43.980;2023-06-14T12:21:39;99948.03;;;24.01;26.26
69982;BME280;57319;56.274;43.980;2023-06-14T12:24:09;99955.09;;;24.01;26.81
69982;BME280;57319;56.274;43.980;2023-06-14T12:26:45;99956.78;;;24.02;26.42
69982;BME280;57319;56.274;43.980;2023-06-14T12:29:12;99956.06;;;23.85;26.23
69982;BME280;57319;56.274;43.980;2023-06-14T12:31:38;99956.88;;;23.59;27.06
69982;BME280;57319;56.274;43.980;2023-06-14T12:34:03;99947.66;;;23.38;26.24
69982;BME280;57319;56.274;43.980;2023-06-14T12:36:29;99956.31;;;23.26;26.74
69982;BME280;57319;56.274;43.980;2023-06-14T12:38:55;99946.72;;;23.11;26.57
69982;BME280;57319;56.274;43.980;2023-06-14T12:41:21;99942.53;;;23.08;26.09
69982;BME280;57319;56.274;43.980;2023-06-14T12:43:48;99951.69;;;23.01;26.23
69982;BME280;57319;56.274;43.980;2023-06-14T12:46:13;99941.47;;;23.11;26.75
69982;BME280;57319;56.274;43.980;2023-06-14T12:48:39;99938.31;;;23.20;26.08
69982;BME280;57319;56.274;43.980;2023-06-14T12:51:05;99932.38;;;23.31;25.77
69982;BME280;57319;56.274;43.980;2023-06-14T12:53:31;99924.97;;;23.23;25.94
69982;BME280;57319;56.274;43.980;2023-06-14T12:55:56;99923.47;;;23.33;26.20
69982;BME280;57319;56.274;43.980;2023-06-14T12:58:23;99931.59;;;23.43;26.54
69982;BME280;57319;56.274;43.980;2023-06-14T13:00:50;99928.88;;;23.45;25.78
69982;BME280;57319;56.274;43.980;2023-06-14T13:03:17;99924.50;;;23.31;26.09
69982;BME280;57319;56.274;43.980;2023-06-14T13:05:45;99919.28;;;23.16;26.24